createdAt,value
2023-03-10T00:00:23.048Z,99120.97
2023-03-10T00:02:50.303Z,99112.91
2023-03-10T00:05:18.506Z,99117.38
2023-03-10T00:07:45.667Z,99118.28
2023-03-10T00:10:14.114Z,99112.13
2023-03-10T00:12:41.118Z,99108.84
2023-03-10T00:15:08.745Z,99105.16
2023-03-10T00:17:35.328Z,99105.16
2023-03-10T00:20:02.308Z,99102.81
2023-03-10T00:22:28.858Z,99096.47
2023-03-10T00:24:55.425Z,99099.84
2023-03-10T00:27:21.980Z,99096.34
2023-03-10T00:29:51.601Z,99092.84
2023-03-10T00:32:18.492Z,99084.66
2023-03-10T00:34:45.184Z,99087.72
2023-03-10T00:37:11.894Z,99093.63
2023-03-10T00:39:38.474Z,99087.91
2023-03-10T00:42:05.095Z,99086.59
2023-03-10T00:44:31.661Z,99078.00
2023-03-10T00:46:58.248Z,99075.50
2023-03-10T00:49:24.841Z,99067.56
2023-03-10T00:51:51.399Z,99064.84
2023-03-10T00:54:17.966Z,99072.81
2023-03-10T00:56:44.553Z,99060.50
2023-03-10T00:59:12.342Z,99063.13
2023-03-10T01:01:41.395Z,99051.00
2023-03-10T01:04:13.680Z,99050.00
2023-03-10T01:06:40.676Z,99040.31
2023-03-10T01:09:07.411Z,99040.97
2023-03-10T01:11:34.505Z,99030.59
2023-03-10T01:14:03.136Z,99039.50
2023-03-10T01:16:29.837Z,99030.53
2023-03-10T01:18:57.345Z,99028.13
2023-03-10T01:21:26.593Z,99024.44
2023-03-10T01:23:53.306Z,99024.25
2023-03-10T01:26:20.422Z,99022.59
2023-03-10T01:28:48.016Z,99008.47
2023-03-10T01:31:15.141Z,99003.44
2023-03-10T01:33:42.900Z,99015.63
2023-03-10T01:36:09.639Z,99014.84
2023-03-10T01:38:37.394Z,99011.28
2023-03-10T01:41:04.817Z,99016.53
2023-03-10T01:43:41.838Z,99006.94
2023-03-10T01:46:26.877Z,99010.59
2023-03-10T01:48:55.159Z,99010.59
2023-03-10T01:51:21.734Z,99015.84
2023-03-10T01:53:48.319Z,99012.25
2023-03-10T01:56:14.887Z,99015.91
2023-03-10T01:58:44.622Z,99018.66
2023-03-10T02:01:11.950Z,99014.31
2023-03-10T02:03:50.355Z,99010.91
2023-03-10T02:06:19.506Z,99007.50
2023-03-10T02:08:49.417Z,98998.41
2023-03-10T02:11:16.675Z,99009.19
2023-03-10T02:13:43.589Z,99000.44
2023-03-10T02:16:10.320Z,98998.41
2023-03-10T02:18:37.031Z,99005.31
2023-03-10T02:21:12.498Z,98996.63
2023-03-10T02:23:51.340Z,98991.22
2023-03-10T02:26:43.372Z,98980.56
2023-03-10T02:29:32.547Z,98979.03
2023-03-10T02:31:59.948Z,98975.31
2023-03-10T02:34:27.062Z,98963.91
2023-03-10T02:36:53.759Z,98962.84
2023-03-10T02:39:20.359Z,98964.59
2023-03-10T02:41:47.452Z,98955.88
2023-03-10T02:44:19.647Z,98954.22
2023-03-10T02:46:46.187Z,98963.91
2023-03-10T02:49:12.793Z,98957.81
2023-03-10T02:51:42.801Z,98959.34
2023-03-10T02:54:10.307Z,98950.63
2023-03-10T02:56:38.182Z,98945.31
2023-03-10T02:59:06.584Z,98949.81
2023-03-10T03:01:33.528Z,98951.34
2023-03-10T03:04:00.714Z,98950.69
2023-03-10T03:06:28.476Z,98949.22
2023-03-10T03:08:55.258Z,98950.63
2023-03-10T03:11:21.894Z,98950.78
2023-03-10T03:13:48.468Z,98955.31
2023-03-10T03:16:15.126Z,98955.88
2023-03-10T03:18:41.707Z,98949.22
2023-03-10T03:21:11.336Z,98945.63
2023-03-10T03:23:38.228Z,98945.63
2023-03-10T03:26:05.780Z,98937.59
2023-03-10T03:28:32.331Z,98940.19
2023-03-10T03:30:59.297Z,98938.66
2023-03-10T03:33:25.889Z,98944.19
2023-03-10T03:35:52.455Z,98946.59
2023-03-10T03:38:19.074Z,98945.72
2023-03-10T03:40:46.021Z,98945.72
2023-03-10T03:43:13.820Z,98936.81
2023-03-10T03:45:40.728Z,98941.19
2023-03-10T03:48:07.299Z,98934.31
2023-03-10T03:50:33.859Z,98942.25
2023-03-10T03:53:00.427Z,98942.03
2023-03-10T03:55:27.096Z,98936.06
2023-03-10T03:57:53.650Z,98936.34
2023-03-10T04:00:23.472Z,98937.03
2023-03-10T04:02:50.666Z,98925.75
2023-03-10T04:05:17.288Z,98927.34
2023-03-10T04:07:45.158Z,98929.97
2023-03-10T04:10:14.887Z,98927.28
2023-03-10T04:12:41.463Z,98925.03
2023-03-10T04:15:08.430Z,98930.16
2023-03-10T04:17:35.569Z,98931.13
2023-03-10T04:20:09.924Z,98936.16
2023-03-10T04:22:36.590Z,98930.97
2023-03-10T04:25:04.319Z,98935.28
2023-03-10T04:27:31.204Z,98933.75
2023-03-10T04:29:57.835Z,98940.81
2023-03-10T04:32:24.694Z,98923.66
2023-03-10T04:34:51.837Z,98930.25
2023-03-10T04:37:18.477Z,98924.84
2023-03-10T04:39:45.024Z,98930.38
2023-03-10T04:42:11.599Z,98924.88
2023-03-10T04:44:38.199Z,98926.03
2023-03-10T04:47:04.890Z,98928.63
2023-03-10T04:49:31.443Z,98923.19
2023-03-10T04:51:58.027Z,98932.97
2023-03-10T04:54:24.625Z,98917.06
2023-03-10T04:56:51.187Z,98923.31
2023-03-10T04:59:18.027Z,98927.09
2023-03-10T05:01:44.628Z,98925.25
2023-03-10T05:04:11.334Z,98934.16
2023-03-10T05:06:37.934Z,98928.72
2023-03-10T05:09:04.942Z,98933.19
2023-03-10T05:11:32.045Z,98925.13
2023-03-10T05:13:58.666Z,98929.53
2023-03-10T05:16:25.720Z,98924.94
2023-03-10T05:18:52.614Z,98923.38
2023-03-10T05:21:21.562Z,98918.25
2023-03-10T05:23:48.911Z,98916.31
2023-03-10T05:26:15.719Z,98916.50
2023-03-10T05:28:42.329Z,98921.75
2023-03-10T05:31:14.587Z,98925.41
2023-03-10T05:33:42.020Z,98920.41
2023-03-10T05:36:10.569Z,98925.47
2023-03-10T05:38:37.785Z,98925.53
2023-03-10T05:41:11.237Z,98927.28
2023-03-10T05:43:38.504Z,98934.25
2023-03-10T05:46:05.785Z,98935.28
2023-03-10T05:48:32.583Z,98933.41
2023-03-10T05:51:05.027Z,98937.94
2023-03-10T05:53:32.835Z,98938.59
2023-03-10T05:55:59.767Z,98937.94
2023-03-10T05:58:26.810Z,98944.25
2023-03-10T06:00:53.612Z,98935.41
2023-03-10T06:03:20.270Z,98933.47
2023-03-10T06:05:46.954Z,98943.47
2023-03-10T06:08:13.506Z,98938.13
2023-03-10T06:10:40.112Z,98934.53
2023-03-10T06:13:06.714Z,98945.16
2023-03-10T06:15:33.295Z,98936.59
2023-03-10T06:17:59.887Z,98934.63
2023-03-10T06:20:26.548Z,98927.56
2023-03-10T06:22:53.397Z,98928.34
2023-03-10T06:25:20.388Z,98935.63
2023-03-10T06:27:47.541Z,98929.50
2023-03-10T06:30:15.099Z,98946.69
2023-03-10T06:32:42.096Z,98935.13
2023-03-10T06:35:09.938Z,98935.03
2023-03-10T06:37:36.484Z,98937.63
2023-03-10T06:40:04.427Z,98936.66
2023-03-10T06:42:32.440Z,98930.72
2023-03-10T06:44:59.038Z,98929.41
2023-03-10T06:47:25.594Z,98927.69
2023-03-10T06:49:54.665Z,98927.75
2023-03-10T06:52:21.269Z,98934.72
2023-03-10T06:54:47.825Z,98937.56
2023-03-10T06:57:14.375Z,98939.09
2023-03-10T06:59:41.041Z,98941.91
2023-03-10T07:02:07.630Z,98949.25
2023-03-10T07:04:34.235Z,98947.03
2023-03-10T07:07:00.850Z,98951.34
2023-03-10T07:09:27.413Z,98949.53
2023-03-10T07:11:53.961Z,98959.69
2023-03-10T07:14:20.524Z,98957.41
2023-03-10T07:16:47.117Z,98969.84
2023-03-10T07:19:13.768Z,98970.56
2023-03-10T07:21:40.520Z,98981.13
2023-03-10T07:24:07.128Z,98984.16
2023-03-10T07:26:33.949Z,98991.53
2023-03-10T07:29:02.565Z,98991.72
2023-03-10T07:31:29.408Z,99001.34
2023-03-10T07:33:56.246Z,98992.97
2023-03-10T07:36:23.566Z,98994.47
2023-03-10T07:38:50.909Z,98996.72
2023-03-10T07:41:19.588Z,98997.59
2023-03-10T07:43:46.497Z,99001.44
2023-03-10T07:46:14.393Z,98991.56
2023-03-10T07:48:41.306Z,98985.19
2023-03-10T07:51:08.040Z,98992.13
2023-03-10T07:53:34.988Z,98998.28
2023-03-10T07:56:12.561Z,98996.78
2023-03-10T07:58:39.750Z,98996.78
2023-03-10T08:01:07.587Z,98998.91
2023-03-10T08:03:34.730Z,99010.66
2023-03-10T08:06:02.520Z,99017.84
2023-03-10T08:08:29.172Z,99025.38
2023-03-10T08:11:06.786Z,99030.28
2023-03-10T08:13:33.458Z,99032.88
2023-03-10T08:16:01.387Z,99038.28
2023-03-10T08:18:29.436Z,99044.41
2023-03-10T08:20:56.286Z,99040.38
2023-03-10T08:23:23.386Z,99047.50
2023-03-10T08:25:50.016Z,99037.03
2023-03-10T08:28:17.008Z,99043.91
2023-03-10T08:31:00.905Z,99052.41
2023-03-10T08:33:30.771Z,99055.34
2023-03-10T08:36:08.674Z,99059.00
2023-03-10T08:38:36.488Z,99055.47
2023-03-10T08:41:15.091Z,99063.19
2023-03-10T08:43:42.652Z,99068.69
2023-03-10T08:46:10.261Z,99068.00
2023-03-10T08:48:37.274Z,99062.78
2023-03-10T08:51:04.385Z,99046.66
2023-03-10T08:53:31.014Z,99041.53
2023-03-10T08:55:58.033Z,99040.72
2023-03-10T08:58:24.808Z,99046.88
2023-03-10T09:00:52.156Z,99055.72
2023-03-10T09:03:19.252Z,99048.88
2023-03-10T09:05:46.413Z,99061.84
2023-03-10T09:08:13.106Z,99055.19
2023-03-10T09:10:40.706Z,99048.50
2023-03-10T09:13:14.167Z,99054.06
2023-03-10T09:15:42.075Z,99063.22
2023-03-10T09:18:09.750Z,99067.03
2023-03-10T09:20:37.295Z,99069.44
2023-03-10T09:23:04.351Z,99083.50
2023-03-10T09:25:31.347Z,99073.81
2023-03-10T09:27:58.157Z,99081.69
2023-03-10T09:30:24.845Z,99091.66
2023-03-10T09:32:52.053Z,99086.28
2023-03-10T09:35:19.482Z,99096.03
2023-03-10T09:37:46.134Z,99088.09
2023-03-10T09:40:18.790Z,99099.91
2023-03-10T09:42:47.719Z,99098.78
2023-03-10T09:45:35.371Z,99101.34
2023-03-10T09:48:17.626Z,99096.63
2023-03-10T09:50:46.438Z,99093.34
2023-03-10T09:53:15.911Z,99091.28
2023-03-10T09:55:47.867Z,99096.72
2023-03-10T09:58:36.995Z,99098.25
2023-03-10T10:01:05.227Z,99091.66
2023-03-10T10:03:51.549Z,99094.94
2023-03-10T10:06:24.307Z,99088.97
2023-03-10T10:09:04.612Z,99093.44
2023-03-10T10:11:33.306Z,99101.59
2023-03-10T10:14:29.244Z,99097.63
2023-03-10T10:17:10.131Z,99089.84
2023-03-10T10:19:39.452Z,99096.94
2023-03-10T10:22:05.964Z,99103.19
2023-03-10T10:24:32.538Z,99113.94
2023-03-10T10:26:59.165Z,99104.97
2023-03-10T10:29:32.439Z,99111.06
2023-03-10T10:32:16.002Z,99124.91
2023-03-10T10:34:44.240Z,99116.19
2023-03-10T10:37:34.746Z,99116.75
2023-03-10T10:40:06.132Z,99124.22
2023-03-10T10:42:34.517Z,99122.59
2023-03-10T10:45:25.328Z,99132.91
2023-03-10T10:47:52.433Z,99130.56
2023-03-10T10:50:23.095Z,99134.91
2023-03-10T10:53:16.653Z,99133.16
2023-03-10T10:55:45.347Z,99129.78
2023-03-10T10:58:32.265Z,99128.69
2023-03-10T11:01:07.680Z,99123.38
2023-03-10T11:03:39.388Z,99140.09
2023-03-10T11:06:15.072Z,99143.38
2023-03-10T11:08:45.025Z,99138.25
2023-03-10T11:11:20.554Z,99142.59
2023-03-10T11:13:52.069Z,99131.41
2023-03-10T11:16:25.827Z,99141.06
2023-03-10T11:19:09.193Z,99141.75
2023-03-10T11:21:41.203Z,99140.47
2023-03-10T11:24:53.522Z,99151.94
2023-03-10T11:27:58.861Z,99150.13
2023-03-10T11:30:35.228Z,99145.66
2023-03-10T11:33:22.121Z,99152.78
2023-03-10T11:35:55.022Z,99144.31
2023-03-10T11:38:21.857Z,99153.38
2023-03-10T11:40:57.302Z,99142.22
2023-03-10T11:44:00.588Z,99136.00
2023-03-10T11:46:41.323Z,99138.97
2023-03-10T11:49:12.830Z,99133.63
2023-03-10T11:51:46.736Z,99124.28
2023-03-10T11:54:17.153Z,99124.38
2023-03-10T11:56:43.855Z,99115.16
2023-03-10T11:59:17.230Z,99118.88
2023-03-10T12:01:54.103Z,99123.88
2023-03-10T12:04:42.198Z,99116.88
2023-03-10T12:07:38.302Z,99112.84
2023-03-10T12:10:13.498Z,99107.03
2023-03-10T12:12:42.581Z,99107.66
2023-03-10T12:15:17.985Z,99105.16
2023-03-10T12:17:47.288Z,99105.16
2023-03-10T12:20:34.781Z,99113.44
2023-03-10T12:23:24.405Z,99099.59
2023-03-10T12:25:51.057Z,99094.72
2023-03-10T12:28:17.646Z,99094.00
2023-03-10T12:30:47.499Z,99107.84
2023-03-10T12:33:37.444Z,99113.06
2023-03-10T12:36:09.309Z,99122.50
2023-03-10T12:38:40.675Z,99122.50
2023-03-10T12:41:07.494Z,99126.41
2023-03-10T12:43:43.056Z,99121.06
2023-03-10T12:46:12.930Z,99120.91
2023-03-10T12:48:43.562Z,99124.47
2023-03-10T12:51:13.278Z,99126.00
2023-03-10T12:54:05.234Z,99125.22
2023-03-10T12:56:39.248Z,99125.66
2023-03-10T12:59:20.706Z,99128.56
2023-03-10T13:01:55.933Z,99126.00
2023-03-10T13:04:23.697Z,99122.91
2023-03-10T13:06:50.496Z,99121.22
2023-03-10T13:09:38.451Z,99118.41
2023-03-10T13:12:09.761Z,99125.75
2023-03-10T13:14:38.643Z,99122.41
2023-03-10T13:17:05.958Z,99119.47
2023-03-10T13:19:35.265Z,99125.94
2023-03-10T13:22:02.406Z,99119.78
2023-03-10T13:24:30.066Z,99122.75
2023-03-10T13:27:18.880Z,99140.00
2023-03-10T13:30:17.869Z,99144.50
2023-03-10T13:32:53.448Z,99135.75
2023-03-10T13:35:24.819Z,99144.91
2023-03-10T13:38:14.227Z,99145.81
2023-03-10T13:40:58.516Z,99163.59
2023-03-10T13:43:42.573Z,99180.72
2023-03-10T13:46:30.440Z,99187.28
2023-03-10T13:49:03.772Z,99193.47
2023-03-10T13:51:32.780Z,99189.13
2023-03-10T13:54:32.773Z,99196.31
2023-03-10T13:57:11.590Z,99197.50
2023-03-10T13:59:38.441Z,99208.97
2023-03-10T14:02:19.920Z,99203.75
2023-03-10T14:04:49.763Z,99210.72
2023-03-10T14:07:29.327Z,99226.75
2023-03-10T14:10:04.943Z,99223.44
2023-03-10T14:12:42.816Z,99232.31
2023-03-10T14:15:38.171Z,99239.44
2023-03-10T14:18:07.842Z,99244.91
2023-03-10T14:20:44.917Z,99251.03
2023-03-10T14:23:22.400Z,99258.19
2023-03-10T14:25:52.001Z,99257.34
2023-03-10T14:28:25.868Z,99273.38
2023-03-10T14:30:52.773Z,99280.44
2023-03-10T14:33:19.641Z,99292.81
2023-03-10T14:35:46.598Z,99303.53
2023-03-10T14:38:13.458Z,99310.63
2023-03-10T14:40:58.117Z,99320.66
2023-03-10T14:43:26.486Z,99326.84
2023-03-10T14:45:56.175Z,99341.03
2023-03-10T14:48:24.918Z,99330.38
2023-03-10T14:50:52.106Z,99321.44
2023-03-10T14:53:21.536Z,99324.13
2023-03-10T14:55:49.884Z,99317.78
2023-03-10T14:58:28.752Z,99320.13
2023-03-10T15:00:55.635Z,99318.53
2023-03-10T15:03:22.262Z,99314.81
2023-03-10T15:05:49.573Z,99323.00
2023-03-10T15:08:17.524Z,99328.44
2023-03-10T15:10:48.255Z,99335.47
2023-03-10T15:13:16.606Z,99341.63
2023-03-10T15:15:44.696Z,99355.13
2023-03-10T15:18:19.793Z,99361.13
2023-03-10T15:20:46.581Z,99371.06
2023-03-10T15:23:16.465Z,99377.06
2023-03-10T15:25:46.127Z,99378.75
2023-03-10T15:28:13.453Z,99376.09
2023-03-10T15:30:40.104Z,99383.09
2023-03-10T15:33:06.881Z,99388.44
2023-03-10T15:35:33.760Z,99389.50
2023-03-10T15:38:00.390Z,99400.91
2023-03-10T15:40:29.782Z,99408.09
2023-03-10T15:42:57.516Z,99401.06
2023-03-10T15:45:25.395Z,99408.25
2023-03-10T15:47:51.953Z,99408.91
2023-03-10T15:50:19.474Z,99419.72
2023-03-10T15:52:50.647Z,99424.09
2023-03-10T15:55:17.346Z,99428.53
2023-03-10T15:57:44.835Z,99448.94
2023-03-10T16:00:12.477Z,99443.66
2023-03-10T16:02:39.082Z,99460.72
2023-03-10T16:05:06.356Z,99455.38
2023-03-10T16:07:35.838Z,99456.53
2023-03-10T16:10:02.437Z,99462.59
2023-03-10T16:12:29.033Z,99475.97
2023-03-10T16:14:55.648Z,99486.72
2023-03-10T16:17:23.501Z,99480.69
2023-03-10T16:19:50.278Z,99490.31
2023-03-10T16:22:17.101Z,99497.53
2023-03-10T16:24:43.681Z,99491.28
2023-03-10T16:27:10.346Z,99501.00
2023-03-10T16:29:37.602Z,99506.44
2023-03-10T16:32:04.465Z,99518.88
2023-03-10T16:34:31.060Z,99511.78
2023-03-10T16:36:57.948Z,99520.72
2023-03-10T16:39:25.799Z,99539.34
2023-03-10T16:41:52.418Z,99549.22
2023-03-10T16:44:19.004Z,99563.50
2023-03-10T16:46:45.585Z,99569.03
2023-03-10T16:49:14.190Z,99577.78
2023-03-10T16:51:42.885Z,99578.06
2023-03-10T16:54:22.582Z,99580.72
2023-03-10T16:56:51.621Z,99583.75
2023-03-10T16:59:22.648Z,99576.47
2023-03-10T17:01:50.021Z,99596.97
2023-03-10T17:04:17.068Z,99589.09
2023-03-10T17:06:44.275Z,99589.94
2023-03-10T17:09:11.880Z,99603.75
2023-03-10T17:11:45.041Z,99608.88
2023-03-10T17:14:14.249Z,99619.72
2023-03-10T17:16:41.782Z,99624.22
2023-03-10T17:19:12.144Z,99626.69
2023-03-10T17:21:40.165Z,99624.25
2023-03-10T17:24:07.906Z,99617.22
2023-03-10T17:26:35.216Z,99635.38
2023-03-10T17:29:02.003Z,99637.94
2023-03-10T17:31:29.672Z,99641.63
2023-03-10T17:33:58.923Z,99647.19
2023-03-10T17:36:25.790Z,99653.38
2023-03-10T17:39:01.390Z,99657.47
2023-03-10T17:41:29.753Z,99666.72
2023-03-10T17:43:56.785Z,99680.81
2023-03-10T17:46:25.945Z,99691.94
2023-03-10T17:48:53.327Z,99707.94
2023-03-10T17:51:23.369Z,99706.25
2023-03-10T17:53:50.073Z,99718.75
2023-03-10T17:56:19.713Z,99730.03
2023-03-10T17:58:46.306Z,99731.69
2023-03-10T18:01:15.311Z,99744.53
2023-03-10T18:03:42.693Z,99745.28
2023-03-10T18:06:17.174Z,99748.72
2023-03-10T18:08:43.945Z,99759.72
2023-03-10T18:11:10.790Z,99787.00
2023-03-10T18:13:37.494Z,99784.59
2023-03-10T18:16:05.412Z,99785.44
2023-03-10T18:18:32.139Z,99797.06
2023-03-10T18:20:58.827Z,99792.69
2023-03-10T18:23:25.535Z,99797.34
2023-03-10T18:25:52.106Z,99813.41
2023-03-10T18:28:20.903Z,99812.44
2023-03-10T18:30:49.495Z,99821.41
2023-03-10T18:33:16.273Z,99824.16
2023-03-10T18:35:44.655Z,99826.91
2023-03-10T18:38:15.468Z,99833.09
2023-03-10T18:40:42.444Z,99838.38
2023-03-10T18:43:09.085Z,99834.94
2023-03-10T18:45:36.179Z,99845.63
2023-03-10T18:48:02.795Z,99849.31
2023-03-10T18:50:29.407Z,99859.94
2023-03-10T18:52:56.921Z,99865.31
2023-03-10T18:55:23.916Z,99863.88
2023-03-10T18:57:50.486Z,99862.88
2023-03-10T19:00:18.390Z,99870.13
2023-03-10T19:02:45.078Z,99890.75
2023-03-10T19:05:15.383Z,99897.66
2023-03-10T19:07:41.960Z,99894.31
2023-03-10T19:10:11.140Z,99908.56
2023-03-10T19:12:37.699Z,99896.06
2023-03-10T19:15:09.171Z,99906.63
2023-03-10T19:17:37.451Z,99912.94
2023-03-10T19:20:07.400Z,99908.50
2023-03-10T19:22:34.963Z,99917.41
2023-03-10T19:25:02.406Z,99919.22
2023-03-10T19:27:29.997Z,99927.72
2023-03-10T19:29:56.593Z,99923.69
2023-03-10T19:32:23.724Z,99931.53
2023-03-10T19:34:50.386Z,99929.88
2023-03-10T19:37:16.965Z,99936.84
2023-03-10T19:39:43.510Z,99947.38
2023-03-10T19:42:10.069Z,99951.06
2023-03-10T19:44:38.800Z,99958.41
2023-03-10T19:47:05.435Z,99960.03
2023-03-10T19:49:34.221Z,99973.34
2023-03-10T19:52:01.381Z,99972.47
2023-03-10T19:54:28.029Z,99994.59
2023-03-10T19:56:54.716Z,99996.38
2023-03-10T19:59:21.323Z,100007.81
2023-03-10T20:01:49.388Z,100011.44
2023-03-10T20:04:16.305Z,100025.72
2023-03-10T20:06:42.959Z,100019.66
2023-03-10T20:09:10.631Z,100023.25
2023-03-10T20:11:39.004Z,100022.31
2023-03-10T20:14:06.164Z,100031.13
2023-03-10T20:16:33.504Z,100029.47
2023-03-10T20:19:00.296Z,100033.78
2023-03-10T20:21:27.633Z,100035.56
2023-03-10T20:23:56.190Z,100038.31
2023-03-10T20:26:23.158Z,100051.53
2023-03-10T20:28:49.962Z,100052.63
2023-03-10T20:31:18.591Z,100055.34
2023-03-10T20:33:45.871Z,100067.72
2023-03-10T20:36:15.700Z,100067.69
2023-03-10T20:38:44.198Z,100066.81
2023-03-10T20:41:15.369Z,100085.44
2023-03-10T20:43:42.671Z,100090.66
2023-03-10T20:46:09.998Z,100093.56
2023-03-10T20:48:36.699Z,100095.22
2023-03-10T20:51:03.562Z,100118.19
2023-03-10T20:53:36.109Z,100121.97
2023-03-10T20:56:03.775Z,100132.63
2023-03-10T20:58:30.374Z,100142.38
2023-03-10T21:00:56.990Z,100130.66
2023-03-10T21:03:23.641Z,100131.53
2023-03-10T21:05:50.377Z,100135.16
2023-03-10T21:08:16.960Z,100138.84
2023-03-10T21:10:44.954Z,100141.34
2023-03-10T21:13:12.132Z,100143.22
2023-03-10T21:15:39.553Z,100146.63
2023-03-10T21:18:06.173Z,100159.16
2023-03-10T21:20:33.287Z,100159.38
2023-03-10T21:23:00.486Z,100169.09
2023-03-10T21:25:28.265Z,100170.94
2023-03-10T21:27:58.760Z,100182.53
2023-03-10T21:30:28.856Z,100187.84
2023-03-10T21:32:56.932Z,100183.34
2023-03-10T21:35:30.384Z,100185.19
2023-03-10T21:37:57.394Z,100183.44
2023-03-10T21:40:24.354Z,100189.59
2023-03-10T21:42:51.243Z,100200.31
2023-03-10T21:45:22.432Z,100195.09
2023-03-10T21:47:49.085Z,100203.97
2023-03-10T21:50:16.221Z,100212.03
2023-03-10T21:52:42.906Z,100216.50
2023-03-10T21:55:23.656Z,100227.09
2023-03-10T21:57:50.402Z,100230.69
2023-03-10T22:00:19.924Z,100238.66
2023-03-10T22:02:47.465Z,100243.13
2023-03-10T22:05:16.209Z,100241.31
2023-03-10T22:07:42.824Z,100239.50
2023-03-10T22:10:11.886Z,100236.03
2023-03-10T22:12:38.858Z,100234.19
2023-03-10T22:15:06.883Z,100232.41
2023-03-10T22:17:33.516Z,100229.75
2023-03-10T22:20:05.394Z,100233.38
2023-03-10T22:22:32.068Z,100229.00
2023-03-10T22:24:58.631Z,100239.56
2023-03-10T22:27:25.256Z,100234.28
2023-03-10T22:29:51.867Z,100251.16
2023-03-10T22:32:18.462Z,100251.13
2023-03-10T22:34:46.254Z,100251.13
2023-03-10T22:37:13.460Z,100255.63
2023-03-10T22:39:40.066Z,100262.81
2023-03-10T22:42:06.910Z,100263.59
2023-03-10T22:44:37.524Z,100273.47
2023-03-10T22:47:05.342Z,100279.72
2023-03-10T22:49:32.273Z,100285.03
2023-03-10T22:51:58.883Z,100304.53
2023-03-10T22:54:25.580Z,100313.47
2023-03-10T22:56:52.229Z,100306.31
2023-03-10T22:59:18.864Z,100305.47
2023-03-10T23:01:45.437Z,100306.47
2023-03-10T23:04:11.994Z,100310.84
2023-03-10T23:06:38.639Z,100310.84
2023-03-10T23:09:05.517Z,100313.53
2023-03-10T23:11:32.443Z,100318.84
2023-03-10T23:14:03.469Z,100333.88
2023-03-10T23:16:36.179Z,100334.75
2023-03-10T23:19:06.010Z,100342.75
2023-03-10T23:21:34.585Z,100335.72
2023-03-10T23:24:01.291Z,100334.81
2023-03-10T23:26:30.076Z,100339.22
2023-03-10T23:28:56.909Z,100340.06
2023-03-10T23:31:23.612Z,100341.00
2023-03-10T23:33:50.629Z,100347.19
2023-03-10T23:36:17.463Z,100349.91
2023-03-10T23:38:44.019Z,100349.91
2023-03-10T23:41:10.698Z,100357.00
2023-03-10T23:43:37.263Z,100357.88
2023-03-10T23:46:08.235Z,100374.78
2023-03-10T23:48:35.337Z,100369.41
2023-03-10T23:51:02.901Z,100381.81
2023-03-10T23:53:30.172Z,100378.28
2023-03-10T23:55:58.829Z,100383.66
2023-03-10T23:58:25.952Z,100381.88
